createdAt,value
2023-04-10T00:03:33.920Z,7.27
2023-04-10T00:08:35.502Z,7.29
2023-04-10T00:13:37.060Z,7.26
2023-04-10T00:18:38.586Z,7.23
2023-04-10T00:23:40.123Z,7.18
2023-04-10T00:28:41.629Z,7.12
2023-04-10T00:33:43.242Z,7.02
2023-04-10T00:38:44.841Z,7.11
2023-04-10T00:43:46.474Z,7.21
2023-04-10T00:48:48.206Z,7.12
2023-04-10T00:53:51.842Z,7.01
2023-04-10T00:58:53.586Z,6.82
2023-04-10T01:03:56.722Z,6.63
2023-04-10T01:09:12.708Z,6.54
2023-04-10T01:14:33.136Z,6.61
2023-04-10T01:20:14.547Z,6.81
2023-04-10T01:25:34.714Z,6.80
2023-04-10T01:30:37.655Z,6.84
2023-04-10T01:35:43.222Z,6.92
2023-04-10T01:40:46.715Z,6.91
2023-04-10T01:45:54.285Z,6.92
2023-04-10T01:50:56.755Z,7.05
2023-04-10T01:55:59.812Z,7.26
2023-04-10T02:01:01.847Z,7.12
2023-04-10T02:06:28.478Z,7.16
2023-04-10T02:11:58.124Z,7.23
2023-04-10T02:17:03.590Z,7.14
2023-04-10T02:22:05.994Z,7.34
2023-04-10T02:27:08.675Z,7.37
2023-04-10T02:32:10.592Z,7.42
2023-04-10T02:37:12.398Z,7.52
2023-04-10T02:42:14.625Z,7.40
2023-04-10T02:47:20.492Z,7.19
2023-04-10T02:52:23.604Z,7.05
2023-04-10T02:57:25.792Z,6.94
2023-04-10T03:02:27.937Z,6.74
2023-04-10T03:07:33.568Z,6.53
2023-04-10T03:12:35.687Z,6.39
2023-04-10T03:17:37.724Z,6.25
2023-04-10T03:22:41.117Z,6.35
2023-04-10T03:27:44.257Z,6.18
2023-04-10T03:32:46.367Z,6.21
2023-04-10T03:37:48.138Z,6.18
2023-04-10T03:42:50.199Z,6.15
2023-04-10T03:53:22.238Z,6.20
2023-04-10T03:58:25.382Z,6.30
2023-04-10T04:03:30.199Z,6.16
2023-04-10T04:08:41.291Z,6.12
2023-04-10T04:13:53.911Z,6.23
2023-04-10T04:19:15.675Z,6.25
2023-04-10T04:24:39.007Z,6.33
2023-04-10T04:29:54.430Z,6.27
2023-04-10T04:35:19.524Z,6.21
2023-04-10T04:40:41.733Z,6.35
2023-04-10T04:46:02.901Z,6.30
2023-04-10T04:51:24.604Z,6.47
2023-04-10T04:56:37.097Z,6.49
2023-04-10T05:01:51.060Z,6.46
2023-04-10T05:07:09.206Z,6.45
2023-04-10T05:12:29.279Z,6.76
2023-04-10T05:17:37.069Z,6.84
2023-04-10T05:23:02.785Z,6.88
2023-04-10T05:28:28.880Z,7.08
2023-04-10T05:33:45.903Z,7.33
2023-04-10T05:39:07.147Z,7.61
2023-04-10T05:44:28.061Z,7.99
2023-04-10T05:50:02.097Z,8.90
2023-04-10T05:55:27.553Z,9.52
2023-04-10T06:00:52.419Z,9.99
2023-04-10T06:06:21.262Z,9.88
2023-04-10T06:11:25.736Z,9.54
2023-04-10T06:16:30.462Z,9.51
2023-04-10T06:21:32.702Z,9.63
2023-04-10T06:26:34.866Z,9.99
2023-04-10T06:31:38.935Z,10.49
2023-04-10T06:36:41.444Z,10.85
2023-04-10T06:41:44.171Z,11.15
2023-04-10T06:47:17.314Z,12.21
2023-04-10T06:52:19.550Z,12.72
2023-04-10T06:57:21.688Z,13.48
2023-04-10T07:02:23.795Z,13.97
2023-04-10T07:07:25.761Z,14.35
2023-04-10T07:12:27.632Z,14.43
2023-04-10T07:17:29.509Z,14.78
2023-04-10T07:22:31.706Z,13.90
2023-04-10T07:27:34.670Z,14.93
2023-04-10T07:32:36.353Z,14.38
2023-04-10T07:37:38.800Z,15.06
2023-04-10T07:42:41.065Z,14.66
2023-04-10T07:47:43.587Z,14.94
2023-04-10T07:52:45.381Z,14.26
2023-04-10T07:57:48.136Z,14.23
2023-04-10T08:02:50.679Z,14.17
2023-04-10T08:07:53.131Z,14.54
2023-04-10T08:12:55.562Z,14.79
2023-04-10T08:17:57.435Z,15.20
2023-04-10T08:23:12.374Z,15.10
2023-04-10T08:28:21.588Z,15.28
2023-04-10T08:33:23.828Z,15.83
2023-04-10T08:38:26.222Z,15.84
2023-04-10T08:43:32.323Z,15.61
2023-04-10T08:49:05.062Z,15.47
2023-04-10T08:54:10.978Z,15.73
2023-04-10T08:59:13.014Z,15.84
2023-04-10T09:04:15.601Z,16.16
2023-04-10T09:09:18.403Z,16.00
2023-04-10T09:14:25.655Z,16.07
2023-04-10T09:19:32.292Z,16.48
2023-04-10T09:24:42.981Z,16.65
2023-04-10T09:29:47.536Z,16.32
2023-04-10T09:34:56.126Z,15.94
2023-04-10T09:40:08.185Z,16.29
2023-04-10T09:45:10.262Z,16.92
2023-04-10T09:50:12.538Z,16.47
2023-04-10T09:55:17.754Z,16.67
2023-04-10T10:00:21.860Z,17.06
2023-04-10T10:05:25.075Z,17.20
2023-04-10T10:10:30.253Z,17.07
2023-04-10T10:15:51.823Z,17.59
2023-04-10T10:20:54.474Z,18.18
2023-04-10T10:25:58.355Z,18.17
2023-04-10T10:31:00.904Z,18.62
2023-04-10T10:36:04.685Z,19.29
2023-04-10T10:41:29.497Z,19.85
2023-04-10T10:46:40.799Z,19.62
2023-04-10T10:51:51.728Z,19.13
2023-04-10T10:56:53.305Z,19.60
2023-04-10T11:02:14.360Z,19.36
2023-04-10T11:07:16.303Z,19.19
2023-04-10T11:12:25.589Z,18.91
2023-04-10T11:17:52.851Z,18.57
2023-04-10T11:23:11.041Z,19.31
2023-04-10T11:28:36.606Z,19.23
2023-04-10T11:33:38.204Z,19.57
2023-04-10T11:38:39.836Z,19.84
2023-04-10T11:43:41.961Z,19.72
2023-04-10T11:48:43.916Z,19.38
2023-04-10T11:53:45.646Z,19.43
2023-04-10T11:58:50.707Z,19.33
2023-04-10T12:03:52.520Z,19.61
2023-04-10T12:08:54.498Z,19.45
2023-04-10T12:13:57.357Z,19.66
2023-04-10T12:18:59.064Z,19.85
2023-04-10T12:24:00.754Z,19.88
2023-04-10T12:29:02.461Z,19.80
2023-04-10T12:34:04.376Z,20.10
2023-04-10T12:39:22.519Z,20.15
2023-04-10T12:44:24.172Z,20.36
2023-04-10T12:49:25.767Z,20.91
2023-04-10T12:54:32.516Z,20.41
2023-04-10T12:59:34.301Z,20.44
2023-04-10T13:04:36.066Z,21.66
2023-04-10T13:09:37.820Z,20.66
2023-04-10T13:14:39.354Z,20.24
2023-04-10T13:19:40.877Z,20.77
2023-04-10T13:24:43.169Z,20.81
2023-04-10T13:29:44.658Z,21.44
2023-04-10T13:34:46.171Z,22.71
2023-04-10T13:39:47.703Z,22.67
2023-04-10T13:44:49.210Z,21.73
2023-04-10T13:49:50.744Z,21.30
2023-04-10T13:54:52.265Z,20.77
2023-04-10T13:59:53.950Z,20.79
2023-04-10T14:04:55.463Z,21.47
2023-04-10T14:09:56.983Z,21.42
2023-04-10T14:14:59.228Z,21.34
2023-04-10T14:20:00.740Z,21.12
2023-04-10T14:25:12.461Z,20.95
2023-04-10T14:30:14.974Z,21.27
2023-04-10T14:35:17.017Z,21.59
2023-04-10T14:40:22.089Z,21.43
2023-04-10T14:45:23.727Z,21.24
2023-04-10T14:50:25.298Z,21.49
2023-04-10T14:55:29.357Z,21.80
2023-04-10T15:00:30.893Z,21.26
2023-04-10T15:05:32.513Z,20.61
2023-04-10T15:10:34.083Z,20.58
2023-04-10T15:15:35.650Z,20.42
2023-04-10T15:20:38.288Z,19.79
2023-04-10T15:25:39.838Z,19.58
2023-04-10T15:30:45.139Z,19.28
2023-04-10T15:35:48.817Z,19.32
2023-04-10T15:40:50.372Z,19.21
2023-04-10T15:45:51.961Z,19.17
2023-04-10T15:50:53.539Z,19.13
2023-04-10T15:55:55.112Z,18.94
2023-04-10T16:00:56.650Z,18.86
2023-04-10T16:05:58.248Z,18.59
2023-04-10T16:10:59.876Z,18.67
2023-04-10T16:16:01.493Z,18.42
2023-04-10T16:21:07.618Z,18.26
2023-04-10T16:26:09.147Z,18.24
2023-04-10T16:31:10.881Z,18.02
2023-04-10T16:36:12.476Z,17.89
2023-04-10T16:41:14.051Z,17.86
2023-04-10T16:46:15.664Z,17.26
2023-04-10T16:51:18.213Z,17.30
2023-04-10T16:56:19.771Z,17.24
2023-04-10T17:01:22.787Z,17.02
2023-04-10T17:06:24.341Z,17.27
2023-04-10T17:11:25.907Z,17.18
2023-04-10T17:16:29.217Z,17.20
2023-04-10T17:21:30.742Z,17.22
2023-04-10T17:26:32.281Z,17.19
2023-04-10T17:31:33.867Z,16.94
2023-04-10T17:36:35.460Z,16.88
2023-04-10T17:41:36.987Z,16.84
2023-04-10T17:46:38.589Z,16.86
2023-04-10T17:51:40.105Z,16.53
2023-04-10T17:56:42.074Z,16.52
2023-04-10T18:01:44.184Z,16.51
2023-04-10T18:06:45.806Z,16.61
2023-04-10T18:11:48.084Z,16.71
2023-04-10T18:16:49.605Z,16.71
2023-04-10T18:21:51.181Z,17.10
2023-04-10T18:26:52.723Z,17.30
2023-04-10T18:31:54.284Z,17.29
2023-04-10T18:36:55.818Z,17.35
2023-04-10T18:41:57.349Z,17.29
2023-04-10T18:47:04.440Z,16.90
2023-04-10T18:52:06.741Z,16.40
2023-04-10T18:57:08.295Z,15.67
2023-04-10T19:02:10.128Z,15.72
2023-04-10T19:07:11.859Z,15.81
2023-04-10T19:12:13.540Z,15.31
2023-04-10T19:17:17.885Z,15.14
2023-04-10T19:22:19.702Z,15.32
2023-04-10T19:27:21.372Z,15.27
2023-04-10T19:32:24.115Z,15.11
2023-04-10T19:37:25.841Z,14.68
2023-04-10T19:42:27.541Z,14.35
2023-04-10T19:47:29.113Z,14.11
2023-04-10T19:52:30.765Z,13.84
2023-04-10T19:57:32.330Z,13.63
2023-04-10T20:02:34.079Z,13.52
2023-04-10T20:07:36.293Z,13.40
2023-04-10T20:12:37.951Z,13.28
2023-04-10T20:17:39.596Z,13.22
2023-04-10T20:22:41.260Z,13.02
2023-04-10T20:27:42.774Z,13.04
2023-04-10T20:32:44.338Z,13.01
2023-04-10T20:37:45.888Z,13.01
2023-04-10T20:42:47.488Z,12.76
2023-04-10T20:47:49.049Z,12.16
2023-04-10T20:52:50.584Z,11.68
2023-04-10T20:57:52.161Z,11.49
2023-04-10T21:02:53.978Z,11.52
2023-04-10T21:07:55.688Z,11.66
2023-04-10T21:12:57.303Z,11.88
2023-04-10T21:17:58.907Z,11.80
2023-04-10T21:23:01.301Z,12.00
2023-04-10T21:28:02.956Z,12.00
2023-04-10T21:33:04.768Z,11.87
2023-04-10T21:38:06.409Z,11.79
2023-04-10T21:43:07.996Z,11.67
2023-04-10T21:48:09.609Z,11.70
2023-04-10T21:53:11.235Z,11.55
2023-04-10T21:58:12.855Z,11.63
2023-04-10T22:03:15.160Z,11.46
2023-04-10T22:08:16.857Z,11.38
2023-04-10T22:13:29.794Z,11.53
2023-04-10T22:18:32.712Z,11.28
2023-04-10T22:23:34.453Z,11.32
2023-04-10T22:28:36.327Z,11.21
2023-04-10T22:33:38.085Z,11.14
2023-04-10T22:38:39.875Z,11.11
2023-04-10T22:43:41.615Z,11.03
2023-04-10T22:48:44.481Z,10.98
2023-04-10T22:53:47.730Z,10.99
2023-04-10T22:58:49.309Z,10.93
2023-04-10T23:03:50.941Z,10.89
2023-04-10T23:08:52.920Z,10.93
2023-04-10T23:13:54.707Z,10.93
2023-04-10T23:18:56.573Z,10.91
2023-04-10T23:23:58.415Z,10.90
2023-04-10T23:29:00.828Z,10.89
2023-04-10T23:34:03.812Z,10.71
2023-04-10T23:39:05.486Z,10.71
2023-04-10T23:44:07.215Z,10.70
2023-04-10T23:49:08.910Z,10.65
2023-04-10T23:54:11.833Z,10.63
2023-04-10T23:59:13.464Z,10.62
